sensor_id;sensor_type;location;lat;lon;timestamp;pressure;altitude;pressure_sealevel;temperature;humidity
28683;BME280;15862;43.062;25.626;2022-08-27T00:01:47;99332.31;;;21.25;100.00
28683;BME280;15862;43.062;25.626;2022-08-27T00:04:12;99336.31;;;21.14;100.00
28683;BME280;15862;43.062;25.626;2022-08-27T00:06:37;99343.16;;;21.15;100.00
28683;BME280;15862;43.062;25.626;2022-08-27T00:09:03;99347.19;;;21.11;100.00
28683;BME280;15862;43.062;25.626;2022-08-27T00:11:29;99348.59;;;21.07;100.00
28683;BME280;15862;43.062;25.626;2022-08-27T00:13:54;99345.50;;;21.04;100.00
28683;BME280;15862;43.062;25.626;2022-08-27T00:16:20;99347.47;;;20.95;100.00
28683;BME280;15862;43.062;25.626;2022-08-27T00:18:46;99351.09;;;20.94;100.00
28683;BME280;15862;43.062;25.626;2022-08-27T00:21:12;99358.25;;;20.79;100.00
28683;BME280;15862;43.062;25.626;2022-08-27T00:23:37;99345.97;;;20.59;100.00
28683;BME280;15862;43.062;25.626;2022-08-27T00:26:04;99362.81;;;20.71;100.00
28683;BME280;15862;43.062;25.626;2022-08-27T00:28:30;99363.81;;;20.70;100.00
28683;BME280;15862;43.062;25.626;2022-08-27T00:30:56;99365.44;;;20.71;100.00
28683;BME280;15862;43.062;25.626;2022-08-27T00:33:22;99367.06;;;20.72;100.00
28683;BME280;15862;43.062;25.626;2022-08-27T00:35:47;99370.63;;;20.65;100.00
28683;BME280;15862;43.062;25.626;2022-08-27T00:38:12;99377.16;;;20.69;100.00
28683;BME280;15862;43.062;25.626;2022-08-27T00:40:38;99367.28;;;20.71;100.00
28683;BME280;15862;43.062;25.626;2022-08-27T00:43:04;99372.31;;;20.72;100.00
28683;BME280;15862;43.062;25.626;2022-08-27T00:45:30;99363.19;;;20.68;100.00
28683;BME280;15862;43.062;25.626;2022-08-27T00:47:57;99373.88;;;20.67;100.00
28683;BME280;15862;43.062;25.626;2022-08-27T00:50:34;99370.63;;;20.65;100.00
28683;BME280;15862;43.062;25.626;2022-08-27T00:53:11;99378.91;;;20.62;100.00
28683;BME280;15862;43.062;25.626;2022-08-27T00:55:44;99372.72;;;20.48;100.00
28683;BME280;15862;43.062;25.626;2022-08-27T01:00:35;99372.78;;;20.34;100.00
28683;BME280;15862;43.062;25.626;2022-08-27T01:03:00;99379.91;;;20.40;100.00
28683;BME280;15862;43.062;25.626;2022-08-27T01:05:26;99384.75;;;20.43;100.00
28683;BME280;15862;43.062;25.626;2022-08-27T01:07:53;99386.22;;;20.45;100.00
28683;BME280;15862;43.062;25.626;2022-08-27T01:10:20;99377.66;;;20.37;100.00
28683;BME280;15862;43.062;25.626;2022-08-27T01:12:46;99373.09;;;20.45;100.00
28683;BME280;15862;43.062;25.626;2022-08-27T01:15:14;99375.13;;;20.50;100.00
28683;BME280;15862;43.062;25.626;2022-08-27T01:17:40;99375.34;;;20.48;100.00
28683;BME280;15862;43.062;25.626;2022-08-27T01:20:08;99371.72;;;20.49;100.00
28683;BME280;15862;43.062;25.626;2022-08-27T01:25:19;99374.91;;;20.45;100.00
28683;BME280;15862;43.062;25.626;2022-08-27T01:27:46;99375.34;;;20.48;100.00
28683;BME280;15862;43.062;25.626;2022-08-27T01:30:14;99369.28;;;20.48;100.00
28683;BME280;15862;43.062;25.626;2022-08-27T01:32:40;99375.72;;;20.45;100.00
28683;BME280;15862;43.062;25.626;2022-08-27T01:35:07;99374.34;;;20.49;100.00
28683;BME280;15862;43.062;25.626;2022-08-27T01:37:33;99378.59;;;20.50;100.00
28683;BME280;15862;43.062;25.626;2022-08-27T01:39:59;99377.75;;;20.50;100.00
28683;BME280;15862;43.062;25.626;2022-08-27T01:42:29;99378.41;;;20.52;100.00
28683;BME280;15862;43.062;25.626;2022-08-27T01:44:57;99376.97;;;20.49;100.00
28683;BME280;15862;43.062;25.626;2022-08-27T01:47:24;99377.31;;;20.46;100.00
28683;BME280;15862;43.062;25.626;2022-08-27T01:49:50;99375.66;;;20.39;100.00
28683;BME280;15862;43.062;25.626;2022-08-27T01:52:16;99378.16;;;20.26;100.00
28683;BME280;15862;43.062;25.626;2022-08-27T01:54:49;99382.41;;;20.27;100.00
28683;BME280;15862;43.062;25.626;2022-08-27T01:57:16;99371.03;;;20.20;100.00
28683;BME280;15862;43.062;25.626;2022-08-27T01:59:41;99386.69;;;20.13;100.00
28683;BME280;15862;43.062;25.626;2022-08-27T02:02:07;99383.75;;;20.02;100.00
28683;BME280;15862;43.062;25.626;2022-08-27T02:04:34;99384.09;;;19.99;100.00
28683;BME280;15862;43.062;25.626;2022-08-27T02:07:00;99389.34;;;19.99;100.00
28683;BME280;15862;43.062;25.626;2022-08-27T02:09:25;99386.91;;;19.98;100.00
28683;BME280;15862;43.062;25.626;2022-08-27T02:11:51;99385.47;;;19.95;100.00
28683;BME280;15862;43.062;25.626;2022-08-27T02:14:16;99384.69;;;19.95;100.00
28683;BME280;15862;43.062;25.626;2022-08-27T02:16:42;99382.56;;;19.90;100.00
28683;BME280;15862;43.062;25.626;2022-08-27T02:19:07;99383.91;;;19.86;100.00
28683;BME280;15862;43.062;25.626;2022-08-27T02:21:33;99385.28;;;19.82;100.00
28683;BME280;15862;43.062;25.626;2022-08-27T02:23:58;99382.28;;;19.85;100.00
28683;BME280;15862;43.062;25.626;2022-08-27T02:26:24;99382.84;;;19.81;100.00
28683;BME280;15862;43.062;25.626;2022-08-27T02:28:49;99388.47;;;19.78;100.00
28683;BME280;15862;43.062;25.626;2022-08-27T02:31:14;99391.53;;;19.81;100.00
28683;BME280;15862;43.062;25.626;2022-08-27T02:33:41;99384.66;;;19.80;100.00
28683;BME280;15862;43.062;25.626;2022-08-27T02:36:07;99390.63;;;19.74;100.00
28683;BME280;15862;43.062;25.626;2022-08-27T02:38:33;99386.94;;;19.69;100.00
28683;BME280;15862;43.062;25.626;2022-08-27T02:40:58;99383.22;;;19.63;100.00
28683;BME280;15862;43.062;25.626;2022-08-27T02:43:23;99390.09;;;19.64;100.00
28683;BME280;15862;43.062;25.626;2022-08-27T02:45:49;99389.66;;;19.61;100.00
28683;BME280;15862;43.062;25.626;2022-08-27T02:48:15;99396.91;;;19.44;100.00
28683;BME280;15862;43.062;25.626;2022-08-27T02:50:41;99393.63;;;19.42;100.00
28683;BME280;15862;43.062;25.626;2022-08-27T02:53:07;99390.47;;;19.47;100.00
28683;BME280;15862;43.062;25.626;2022-08-27T02:55:33;99393.91;;;19.47;100.00
28683;BME280;15862;43.062;25.626;2022-08-27T02:57:59;99395.72;;;19.47;100.00
28683;BME280;15862;43.062;25.626;2022-08-27T03:00:24;99389.03;;;19.44;100.00
28683;BME280;15862;43.062;25.626;2022-08-27T03:02:52;99382.44;;;19.34;100.00
28683;BME280;15862;43.062;25.626;2022-08-27T03:05:18;99395.00;;;19.38;100.00
28683;BME280;15862;43.062;25.626;2022-08-27T03:07:43;99394.53;;;19.35;100.00
28683;BME280;15862;43.062;25.626;2022-08-27T03:10:10;99396.34;;;19.34;100.00
28683;BME280;15862;43.062;25.626;2022-08-27T03:12:37;99403.28;;;19.27;100.00
28683;BME280;15862;43.062;25.626;2022-08-27T03:15:03;99400.66;;;19.27;100.00
28683;BME280;15862;43.062;25.626;2022-08-27T03:17:28;99403.94;;;19.29;100.00
28683;BME280;15862;43.062;25.626;2022-08-27T03:20:12;99401.13;;;19.31;100.00
28683;BME280;15862;43.062;25.626;2022-08-27T03:22:38;99403.13;;;19.29;100.00
28683;BME280;15862;43.062;25.626;2022-08-27T03:25:04;99407.19;;;19.31;100.00
28683;BME280;15862;43.062;25.626;2022-08-27T03:27:30;99402.94;;;19.30;100.00
28683;BME280;15862;43.062;25.626;2022-08-27T03:29:55;99411.00;;;19.29;100.00
28683;BME280;15862;43.062;25.626;2022-08-27T03:32:21;99410.81;;;19.30;100.00
28683;BME280;15862;43.062;25.626;2022-08-27T03:34:46;99412.13;;;19.26;100.00
28683;BME280;15862;43.062;25.626;2022-08-27T03:37:11;99419.66;;;19.29;100.00
28683;BME280;15862;43.062;25.626;2022-08-27T03:39:39;99416.03;;;19.30;100.00
28683;BME280;15862;43.062;25.626;2022-08-27T03:42:04;99412.59;;;19.30;100.00
28683;BME280;15862;43.062;25.626;2022-08-27T03:44:30;99420.00;;;19.26;100.00
28683;BME280;15862;43.062;25.626;2022-08-27T03:46:55;99418.28;;;19.33;100.00
28683;BME280;15862;43.062;25.626;2022-08-27T03:49:21;99421.19;;;19.38;100.00
28683;BME280;15862;43.062;25.626;2022-08-27T03:51:46;99413.94;;;19.40;100.00
28683;BME280;15862;43.062;25.626;2022-08-27T03:54:11;99419.84;;;19.42;100.00
28683;BME280;15862;43.062;25.626;2022-08-27T03:56:37;99417.13;;;19.50;100.00
28683;BME280;15862;43.062;25.626;2022-08-27T03:59:07;99424.66;;;19.53;100.00
28683;BME280;15862;43.062;25.626;2022-08-27T04:01:32;99422.47;;;19.57;100.00
28683;BME280;15862;43.062;25.626;2022-08-27T04:03:58;99424.81;;;19.66;100.00
28683;BME280;15862;43.062;25.626;2022-08-27T04:06:24;99427.09;;;19.69;100.00
28683;BME280;15862;43.062;25.626;2022-08-27T04:08:49;99427.78;;;19.78;100.00
28683;BME280;15862;43.062;25.626;2022-08-27T04:11:14;99429.13;;;19.88;100.00
28683;BME280;15862;43.062;25.626;2022-08-27T04:13:39;99426.06;;;19.99;100.00
28683;BME280;15862;43.062;25.626;2022-08-27T04:16:05;99426.25;;;20.12;100.00
28683;BME280;15862;43.062;25.626;2022-08-27T04:18:31;99420.69;;;20.21;100.00
28683;BME280;15862;43.062;25.626;2022-08-27T04:20:56;99423.22;;;20.15;100.00
28683;BME280;15862;43.062;25.626;2022-08-27T04:23:22;99433.81;;;20.21;100.00
28683;BME280;15862;43.062;25.626;2022-08-27T04:25:47;99435.38;;;20.37;100.00
28683;BME280;15862;43.062;25.626;2022-08-27T04:28:13;99433.53;;;20.52;100.00
28683;BME280;15862;43.062;25.626;2022-08-27T04:30:43;99435.16;;;20.73;100.00
28683;BME280;15862;43.062;25.626;2022-08-27T04:33:09;99432.50;;;20.88;100.00
28683;BME280;15862;43.062;25.626;2022-08-27T04:35:35;99434.66;;;21.05;100.00
28683;BME280;15862;43.062;25.626;2022-08-27T04:38:00;99441.97;;;21.37;100.00
28683;BME280;15862;43.062;25.626;2022-08-27T04:40:26;99432.69;;;21.41;100.00
28683;BME280;15862;43.062;25.626;2022-08-27T04:43:11;99437.56;;;21.44;100.00
28683;BME280;15862;43.062;25.626;2022-08-27T04:45:47;99437.28;;;21.60;100.00
28683;BME280;15862;43.062;25.626;2022-08-27T04:48:14;99439.03;;;21.80;100.00
28683;BME280;15862;43.062;25.626;2022-08-27T04:50:40;99432.84;;;22.01;100.00
28683;BME280;15862;43.062;25.626;2022-08-27T04:53:05;99429.63;;;22.05;100.00
28683;BME280;15862;43.062;25.626;2022-08-27T04:55:32;99429.09;;;22.23;100.00
28683;BME280;15862;43.062;25.626;2022-08-27T04:57:57;99440.50;;;22.30;100.00
28683;BME280;15862;43.062;25.626;2022-08-27T05:00:23;99447.09;;;22.26;100.00
28683;BME280;15862;43.062;25.626;2022-08-27T05:02:49;99445.97;;;22.34;100.00
28683;BME280;15862;43.062;25.626;2022-08-27T05:05:14;99445.81;;;22.49;100.00
28683;BME280;15862;43.062;25.626;2022-08-27T05:07:39;99446.63;;;22.62;100.00
28683;BME280;15862;43.062;25.626;2022-08-27T05:10:04;99446.25;;;22.78;100.00
28683;BME280;15862;43.062;25.626;2022-08-27T05:12:30;99456.44;;;23.07;100.00
28683;BME280;15862;43.062;25.626;2022-08-27T05:14:55;99454.63;;;23.14;100.00
28683;BME280;15862;43.062;25.626;2022-08-27T05:17:20;99456.03;;;23.36;96.86
28683;BME280;15862;43.062;25.626;2022-08-27T05:19:46;99459.66;;;23.61;94.94
28683;BME280;15862;43.062;25.626;2022-08-27T05:22:11;99458.00;;;23.73;92.79
28683;BME280;15862;43.062;25.626;2022-08-27T05:24:36;99459.78;;;23.91;90.72
28683;BME280;15862;43.062;25.626;2022-08-27T05:27:02;99454.25;;;24.12;86.53
28683;BME280;15862;43.062;25.626;2022-08-27T05:29:28;99459.81;;;24.35;79.43
28683;BME280;15862;43.062;25.626;2022-08-27T05:31:53;99457.84;;;24.68;79.06
28683;BME280;15862;43.062;25.626;2022-08-27T05:34:19;99456.31;;;24.85;77.78
28683;BME280;15862;43.062;25.626;2022-08-27T05:36:46;99465.28;;;24.77;77.19
28683;BME280;15862;43.062;25.626;2022-08-27T05:39:12;99467.72;;;24.79;76.98
28683;BME280;15862;43.062;25.626;2022-08-27T05:41:37;99474.31;;;24.64;77.92
28683;BME280;15862;43.062;25.626;2022-08-27T05:44:07;99466.13;;;24.78;79.85
28683;BME280;15862;43.062;25.626;2022-08-27T05:46:33;99476.50;;;25.04;77.13
28683;BME280;15862;43.062;25.626;2022-08-27T05:49:00;99474.25;;;25.32;77.07
28683;BME280;15862;43.062;25.626;2022-08-27T05:51:27;99483.78;;;26.17;74.48
28683;BME280;15862;43.062;25.626;2022-08-27T05:53:53;99484.44;;;27.30;66.90
28683;BME280;15862;43.062;25.626;2022-08-27T05:56:20;99475.91;;;28.47;58.24
28683;BME280;15862;43.062;25.626;2022-08-27T05:58:46;99482.78;;;29.48;54.70
28683;BME280;15862;43.062;25.626;2022-08-27T06:01:31;99484.16;;;30.26;50.23
28683;BME280;15862;43.062;25.626;2022-08-27T06:03:57;99488.50;;;31.06;47.40
28683;BME280;15862;43.062;25.626;2022-08-27T06:06:22;99481.19;;;31.59;46.50
28683;BME280;15862;43.062;25.626;2022-08-27T06:08:49;99487.22;;;32.37;43.77
28683;BME280;15862;43.062;25.626;2022-08-27T06:11:15;99489.31;;;32.25;43.71
28683;BME280;15862;43.062;25.626;2022-08-27T06:13:42;99496.69;;;32.74;41.92
28683;BME280;15862;43.062;25.626;2022-08-27T06:16:08;99489.03;;;33.13;41.34
28683;BME280;15862;43.062;25.626;2022-08-27T06:18:37;99483.03;;;32.71;41.94
28683;BME280;15862;43.062;25.626;2022-08-27T06:21:02;99485.50;;;33.42;40.14
28683;BME280;15862;43.062;25.626;2022-08-27T06:23:28;99492.56;;;34.36;38.37
28683;BME280;15862;43.062;25.626;2022-08-27T06:25:54;99492.06;;;34.24;38.70
28683;BME280;15862;43.062;25.626;2022-08-27T06:28:20;99497.72;;;34.76;37.64
28683;BME280;15862;43.062;25.626;2022-08-27T06:30:46;99487.19;;;35.56;36.51
28683;BME280;15862;43.062;25.626;2022-08-27T06:33:11;99489.03;;;36.12;35.30
28683;BME280;15862;43.062;25.626;2022-08-27T06:35:36;99493.47;;;35.98;35.01
28683;BME280;15862;43.062;25.626;2022-08-27T06:38:01;99487.59;;;35.96;34.73
28683;BME280;15862;43.062;25.626;2022-08-27T06:40:27;99488.69;;;35.95;34.92
28683;BME280;15862;43.062;25.626;2022-08-27T06:42:52;99480.69;;;35.85;34.71
28683;BME280;15862;43.062;25.626;2022-08-27T06:45:18;99486.63;;;36.29;33.48
28683;BME280;15862;43.062;25.626;2022-08-27T06:47:43;99488.34;;;36.20;33.50
28683;BME280;15862;43.062;25.626;2022-08-27T06:50:09;99485.75;;;36.75;33.33
28683;BME280;15862;43.062;25.626;2022-08-27T06:52:34;99482.34;;;37.06;33.25
28683;BME280;15862;43.062;25.626;2022-08-27T06:54:59;99487.22;;;37.36;31.71
28683;BME280;15862;43.062;25.626;2022-08-27T06:57:24;99485.16;;;37.15;31.59
28683;BME280;15862;43.062;25.626;2022-08-27T06:59:50;99490.13;;;38.12;30.29
28683;BME280;15862;43.062;25.626;2022-08-27T07:02:15;99496.28;;;38.79;29.30
28683;BME280;15862;43.062;25.626;2022-08-27T07:04:41;99490.00;;;39.06;28.99
28683;BME280;15862;43.062;25.626;2022-08-27T07:07:21;99494.69;;;39.44;28.41
28683;BME280;15862;43.062;25.626;2022-08-27T07:09:55;99490.75;;;40.10;27.17
28683;BME280;15862;43.062;25.626;2022-08-27T07:12:22;99491.88;;;39.49;28.28
28683;BME280;15862;43.062;25.626;2022-08-27T07:14:48;99485.97;;;39.47;27.80
28683;BME280;15862;43.062;25.626;2022-08-27T07:17:13;99489.69;;;39.59;27.61
28683;BME280;15862;43.062;25.626;2022-08-27T07:19:38;99482.44;;;39.77;27.23
28683;BME280;15862;43.062;25.626;2022-08-27T07:22:04;99486.94;;;40.28;27.38
28683;BME280;15862;43.062;25.626;2022-08-27T07:37:03;99480.25;;;40.17;26.72
28683;BME280;15862;43.062;25.626;2022-08-27T07:39:28;99481.47;;;40.03;26.44
28683;BME280;15862;43.062;25.626;2022-08-27T07:44:57;99480.41;;;40.21;26.53
28683;BME280;15862;43.062;25.626;2022-08-27T07:47:22;99483.91;;;40.21;26.31
28683;BME280;15862;43.062;25.626;2022-08-27T07:49:48;99476.88;;;40.76;26.31
28683;BME280;15862;43.062;25.626;2022-08-27T07:52:13;99480.66;;;41.09;26.05
28683;BME280;15862;43.062;25.626;2022-08-27T07:54:40;99477.72;;;41.48;25.78
28683;BME280;15862;43.062;25.626;2022-08-27T07:57:05;99474.72;;;41.41;25.58
28683;BME280;15862;43.062;25.626;2022-08-27T07:59:30;99479.28;;;41.65;25.21
28683;BME280;15862;43.062;25.626;2022-08-27T08:01:56;99476.28;;;42.74;24.30
28683;BME280;15862;43.062;25.626;2022-08-27T08:04:21;99470.91;;;42.16;24.66
28683;BME280;15862;43.062;25.626;2022-08-27T08:06:47;99470.94;;;42.86;23.90
28683;BME280;15862;43.062;25.626;2022-08-27T08:09:12;99471.44;;;43.20;23.56
28683;BME280;15862;43.062;25.626;2022-08-27T08:11:38;99461.84;;;43.14;23.33
28683;BME280;15862;43.062;25.626;2022-08-27T08:14:03;99464.94;;;43.13;23.58
28683;BME280;15862;43.062;25.626;2022-08-27T08:16:28;99462.91;;;43.21;24.10
28683;BME280;15862;43.062;25.626;2022-08-27T08:18:54;99465.31;;;43.67;23.64
28683;BME280;15862;43.062;25.626;2022-08-27T08:21:28;99459.78;;;43.31;23.49
28683;BME280;15862;43.062;25.626;2022-08-27T08:24:00;99464.50;;;43.67;23.32
28683;BME280;15862;43.062;25.626;2022-08-27T08:26:26;99463.16;;;44.08;22.72
28683;BME280;15862;43.062;25.626;2022-08-27T08:28:55;99459.06;;;44.14;22.59
28683;BME280;15862;43.062;25.626;2022-08-27T08:31:32;99462.53;;;44.51;22.03
28683;BME280;15862;43.062;25.626;2022-08-27T08:33:57;99453.25;;;45.06;21.69
28683;BME280;15862;43.062;25.626;2022-08-27T08:36:22;99448.53;;;46.08;21.33
28683;BME280;15862;43.062;25.626;2022-08-27T08:38:48;99444.91;;;45.73;21.79
28683;BME280;15862;43.062;25.626;2022-08-27T08:41:33;99442.69;;;45.78;21.54
28683;BME280;15862;43.062;25.626;2022-08-27T08:44:02;99450.06;;;46.09;20.73
28683;BME280;15862;43.062;25.626;2022-08-27T08:49:38;99444.44;;;46.51;20.68
28683;BME280;15862;43.062;25.626;2022-08-27T08:54:32;99438.75;;;45.76;20.89
28683;BME280;15862;43.062;25.626;2022-08-27T08:57:00;99434.75;;;45.89;21.29
28683;BME280;15862;43.062;25.626;2022-08-27T08:59:34;99440.47;;;46.15;20.69
28683;BME280;15862;43.062;25.626;2022-08-27T09:02:02;99438.94;;;47.08;19.64
28683;BME280;15862;43.062;25.626;2022-08-27T09:04:28;99431.13;;;45.54;21.13
28683;BME280;15862;43.062;25.626;2022-08-27T09:06:56;99435.13;;;45.41;21.12
28683;BME280;15862;43.062;25.626;2022-08-27T09:09:26;99434.47;;;46.44;20.75
28683;BME280;15862;43.062;25.626;2022-08-27T09:14:38;99419.47;;;45.88;20.86
28683;BME280;15862;43.062;25.626;2022-08-27T09:17:05;99420.19;;;43.58;22.26
28683;BME280;15862;43.062;25.626;2022-08-27T09:19:30;99417.75;;;42.27;24.56
28683;BME280;15862;43.062;25.626;2022-08-27T09:21:59;99422.63;;;43.15;23.79
28683;BME280;15862;43.062;25.626;2022-08-27T09:24:29;99418.59;;;43.01;23.22
28683;BME280;15862;43.062;25.626;2022-08-27T09:26:57;99432.97;;;43.21;22.61
28683;BME280;15862;43.062;25.626;2022-08-27T09:29:24;99421.78;;;42.01;23.94
28683;BME280;15862;43.062;25.626;2022-08-27T09:31:52;99423.03;;;42.03;24.35
28683;BME280;15862;43.062;25.626;2022-08-27T09:34:18;99418.22;;;42.49;22.63
28683;BME280;15862;43.062;25.626;2022-08-27T09:39:12;99421.03;;;43.82;22.30
28683;BME280;15862;43.062;25.626;2022-08-27T09:41:41;99423.38;;;44.19;21.95
28683;BME280;15862;43.062;25.626;2022-08-27T09:44:10;99410.53;;;44.20;21.26
28683;BME280;15862;43.062;25.626;2022-08-27T09:46:35;99413.66;;;44.85;21.29
28683;BME280;15862;43.062;25.626;2022-08-27T09:49:12;99412.84;;;43.58;21.00
28683;BME280;15862;43.062;25.626;2022-08-27T09:51:39;99420.00;;;43.63;20.30
28683;BME280;15862;43.062;25.626;2022-08-27T09:54:05;99406.47;;;43.78;20.77
28683;BME280;15862;43.062;25.626;2022-08-27T09:56:33;99418.97;;;45.36;20.14
28683;BME280;15862;43.062;25.626;2022-08-27T10:01:32;99417.91;;;45.87;19.27
28683;BME280;15862;43.062;25.626;2022-08-27T10:04:05;99424.44;;;45.67;19.64
28683;BME280;15862;43.062;25.626;2022-08-27T10:06:31;99427.63;;;45.69;19.77
28683;BME280;15862;43.062;25.626;2022-08-27T10:09:10;99424.06;;;45.68;19.40
28683;BME280;15862;43.062;25.626;2022-08-27T10:11:48;99419.22;;;45.31;19.82
28683;BME280;15862;43.062;25.626;2022-08-27T10:17:05;99404.63;;;45.39;20.68
28683;BME280;15862;43.062;25.626;2022-08-27T10:30:20;99415.41;;;46.47;19.46
28683;BME280;15862;43.062;25.626;2022-08-27T10:48:05;99399.06;;;46.50;18.85
28683;BME280;15862;43.062;25.626;2022-08-27T10:50:54;99404.81;;;47.47;18.77
28683;BME280;15862;43.062;25.626;2022-08-27T11:01:39;99387.72;;;46.33;18.91
28683;BME280;15862;43.062;25.626;2022-08-27T11:04:09;99395.75;;;46.79;18.67
28683;BME280;15862;43.062;25.626;2022-08-27T11:06:43;99399.53;;;46.75;18.51
28683;BME280;15862;43.062;25.626;2022-08-27T11:09:15;99387.22;;;46.65;18.63
28683;BME280;15862;43.062;25.626;2022-08-27T11:11:42;99382.75;;;46.95;18.71
28683;BME280;15862;43.062;25.626;2022-08-27T11:14:56;99386.31;;;46.77;18.68
28683;BME280;15862;43.062;25.626;2022-08-27T11:17:02;99390.97;;;46.57;18.96
28683;BME280;15862;43.062;25.626;2022-08-27T11:22:03;99379.06;;;45.97;19.21
28683;BME280;15862;43.062;25.626;2022-08-27T11:27:21;99377.63;;;46.03;18.76
28683;BME280;15862;43.062;25.626;2022-08-27T11:29:50;99384.97;;;45.99;18.95
28683;BME280;15862;43.062;25.626;2022-08-27T11:35:09;99385.66;;;45.31;18.90
28683;BME280;15862;43.062;25.626;2022-08-27T11:43:28;99368.66;;;45.53;19.29
28683;BME280;15862;43.062;25.626;2022-08-27T11:45:36;99367.22;;;45.12;19.87
28683;BME280;15862;43.062;25.626;2022-08-27T11:51:02;99371.19;;;46.11;18.97
28683;BME280;15862;43.062;25.626;2022-08-27T11:53:30;99371.16;;;46.26;19.01
28683;BME280;15862;43.062;25.626;2022-08-27T11:55:56;99364.09;;;46.25;18.84
28683;BME280;15862;43.062;25.626;2022-08-27T11:58:26;99353.56;;;45.12;19.26
28683;BME280;15862;43.062;25.626;2022-08-27T12:00:52;99358.56;;;43.41;20.37
28683;BME280;15862;43.062;25.626;2022-08-27T12:05:44;99357.75;;;41.17;21.81
28683;BME280;15862;43.062;25.626;2022-08-27T12:13:15;99335.19;;;40.28;22.47
28683;BME280;15862;43.062;25.626;2022-08-27T12:18:55;99350.91;;;41.77;20.75
28683;BME280;15862;43.062;25.626;2022-08-27T12:26:31;99348.72;;;45.06;18.73
28683;BME280;15862;43.062;25.626;2022-08-27T12:29:18;99347.47;;;45.03;18.97
28683;BME280;15862;43.062;25.626;2022-08-27T12:31:45;99345.81;;;45.45;18.38
28683;BME280;15862;43.062;25.626;2022-08-27T12:34:17;99341.50;;;45.44;19.08
28683;BME280;15862;43.062;25.626;2022-08-27T12:36:43;99336.88;;;44.86;18.70
28683;BME280;15862;43.062;25.626;2022-08-27T12:39:19;99336.63;;;45.22;18.22
28683;BME280;15862;43.062;25.626;2022-08-27T12:41:47;99341.50;;;45.60;18.26
28683;BME280;15862;43.062;25.626;2022-08-27T12:46:45;99340.31;;;44.29;19.21
28683;BME280;15862;43.062;25.626;2022-08-27T12:49:13;99333.88;;;44.21;19.46
28683;BME280;15862;43.062;25.626;2022-08-27T12:51:40;99333.13;;;43.25;20.46
28683;BME280;15862;43.062;25.626;2022-08-27T13:04:27;99328.47;;;43.98;18.34
28683;BME280;15862;43.062;25.626;2022-08-27T13:06:55;99325.84;;;44.56;18.86
28683;BME280;15862;43.062;25.626;2022-08-27T13:09:28;99318.63;;;43.57;19.69
28683;BME280;15862;43.062;25.626;2022-08-27T13:11:54;99326.78;;;43.21;19.98
28683;BME280;15862;43.062;25.626;2022-08-27T13:14:24;99320.81;;;42.84;20.22
28683;BME280;15862;43.062;25.626;2022-08-27T13:19:21;99326.38;;;42.67;19.62
28683;BME280;15862;43.062;25.626;2022-08-27T13:21:48;99314.13;;;42.08;20.80
28683;BME280;15862;43.062;25.626;2022-08-27T13:24:17;99315.69;;;42.50;20.61
28683;BME280;15862;43.062;25.626;2022-08-27T13:26:46;99317.69;;;43.17;19.99
28683;BME280;15862;43.062;25.626;2022-08-27T13:29:24;99319.13;;;42.59;19.99
28683;BME280;15862;43.062;25.626;2022-08-27T13:31:50;99314.09;;;42.29;20.23
28683;BME280;15862;43.062;25.626;2022-08-27T13:34:17;99315.69;;;42.30;20.13
28683;BME280;15862;43.062;25.626;2022-08-27T13:36:57;99316.91;;;42.40;20.14
28683;BME280;15862;43.062;25.626;2022-08-27T13:39:23;99310.88;;;41.94;19.92
28683;BME280;15862;43.062;25.626;2022-08-27T13:41:49;99310.09;;;41.94;20.46
28683;BME280;15862;43.062;25.626;2022-08-27T13:44:19;99316.47;;;41.69;21.26
28683;BME280;15862;43.062;25.626;2022-08-27T13:46:49;99305.06;;;41.18;21.02
28683;BME280;15862;43.062;25.626;2022-08-27T13:49:17;99309.53;;;40.26;22.67
28683;BME280;15862;43.062;25.626;2022-08-27T13:51:45;99303.16;;;39.96;22.98
28683;BME280;15862;43.062;25.626;2022-08-27T13:54:12;99311.63;;;40.03;22.57
28683;BME280;15862;43.062;25.626;2022-08-27T13:56:39;99311.25;;;39.88;22.70
28683;BME280;15862;43.062;25.626;2022-08-27T14:01:37;99308.56;;;39.41;22.43
28683;BME280;15862;43.062;25.626;2022-08-27T14:04:07;99312.22;;;39.36;22.63
28683;BME280;15862;43.062;25.626;2022-08-27T14:09:07;99307.50;;;38.59;23.54
28683;BME280;15862;43.062;25.626;2022-08-27T14:11:36;99298.59;;;38.59;23.41
28683;BME280;15862;43.062;25.626;2022-08-27T14:14:02;99304.56;;;38.12;23.92
28683;BME280;15862;43.062;25.626;2022-08-27T14:16:29;99298.94;;;37.87;24.96
28683;BME280;15862;43.062;25.626;2022-08-27T14:19:03;99305.41;;;37.64;24.34
28683;BME280;15862;43.062;25.626;2022-08-27T14:21:30;99302.00;;;37.45;25.15
28683;BME280;15862;43.062;25.626;2022-08-27T14:24:05;99301.38;;;37.61;25.17
28683;BME280;15862;43.062;25.626;2022-08-27T14:26:31;99307.44;;;37.32;24.97
28683;BME280;15862;43.062;25.626;2022-08-27T14:28:57;99308.34;;;36.95;26.33
28683;BME280;15862;43.062;25.626;2022-08-27T14:31:23;99299.59;;;36.71;26.41
28683;BME280;15862;43.062;25.626;2022-08-27T14:33:49;99300.16;;;36.55;26.32
28683;BME280;15862;43.062;25.626;2022-08-27T14:36:14;99306.69;;;36.67;26.18
28683;BME280;15862;43.062;25.626;2022-08-27T14:38:41;99307.25;;;36.65;26.49
28683;BME280;15862;43.062;25.626;2022-08-27T14:41:08;99304.13;;;36.26;26.04
28683;BME280;15862;43.062;25.626;2022-08-27T14:43:33;99307.88;;;35.88;27.29
28683;BME280;15862;43.062;25.626;2022-08-27T14:45:58;99308.59;;;35.57;27.25
28683;BME280;15862;43.062;25.626;2022-08-27T14:48:24;99309.53;;;35.66;27.96
28683;BME280;15862;43.062;25.626;2022-08-27T14:50:51;99311.44;;;35.65;27.34